sensor_id;sensor_type;location;lat;lon;timestamp;pressure;altitude;pressure_sealevel;temperature;humidity
4123;BME280;2075;51.062;6.920;2023-11-21T00:01:26;-11667.00;;;-144.48;100.00
4123;BME280;2075;51.062;6.920;2023-11-21T00:04:11;-11667.00;;;-144.48;100.00
4123;BME280;2075;51.062;6.920;2023-11-21T00:06:57;-11667.00;;;-144.48;100.00
4123;BME280;2075;51.062;6.920;2023-11-21T00:09:45;-11667.00;;;-144.48;100.00
4123;BME280;2075;51.062;6.920;2023-11-21T00:12:30;-11667.00;;;-144.48;100.00
4123;BME280;2075;51.062;6.920;2023-11-21T00:15:17;-11667.00;;;-144.48;100.00
4123;BME280;2075;51.062;6.920;2023-11-21T00:18:03;-11667.00;;;-144.48;100.00
4123;BME280;2075;51.062;6.920;2023-11-21T00:20:49;-11667.00;;;-144.48;100.00
4123;BME280;2075;51.062;6.920;2023-11-21T00:23:35;-11667.00;;;-144.48;100.00
4123;BME280;2075;51.062;6.920;2023-11-21T00:26:22;-11667.00;;;-144.48;100.00
4123;BME280;2075;51.062;6.920;2023-11-21T00:29:18;-11667.00;;;-144.48;100.00
4123;BME280;2075;51.062;6.920;2023-11-21T00:32:05;-11667.00;;;-144.48;100.00
4123;BME280;2075;51.062;6.920;2023-11-21T00:34:50;-11667.00;;;-144.48;100.00
4123;BME280;2075;51.062;6.920;2023-11-21T00:37:36;-11667.00;;;-144.48;100.00
4123;BME280;2075;51.062;6.920;2023-11-21T00:40:24;-11667.00;;;-144.48;100.00
4123;BME280;2075;51.062;6.920;2023-11-21T00:43:11;-11667.00;;;-144.48;100.00
4123;BME280;2075;51.062;6.920;2023-11-21T00:45:57;-11667.00;;;-144.48;100.00
4123;BME280;2075;51.062;6.920;2023-11-21T00:48:43;-11667.00;;;-144.48;100.00
4123;BME280;2075;51.062;6.920;2023-11-21T00:51:29;-11667.00;;;-144.48;100.00
4123;BME280;2075;51.062;6.920;2023-11-21T00:54:15;-11667.00;;;-144.48;100.00
4123;BME280;2075;51.062;6.920;2023-11-21T00:57:02;-11667.00;;;-144.48;100.00
4123;BME280;2075;51.062;6.920;2023-11-21T00:59:49;-11667.00;;;-144.48;100.00
4123;BME280;2075;51.062;6.920;2023-11-21T01:02:35;-11667.00;;;-144.48;100.00
4123;BME280;2075;51.062;6.920;2023-11-21T01:05:20;-11667.00;;;-144.48;100.00
4123;BME280;2075;51.062;6.920;2023-11-21T01:08:06;-11667.00;;;-144.48;100.00
4123;BME280;2075;51.062;6.920;2023-11-21T01:10:51;-11667.00;;;-144.48;100.00
4123;BME280;2075;51.062;6.920;2023-11-21T01:13:37;-11667.00;;;-144.48;100.00
4123;BME280;2075;51.062;6.920;2023-11-21T01:16:25;-11667.00;;;-144.48;100.00
4123;BME280;2075;51.062;6.920;2023-11-21T01:19:12;-11667.00;;;-144.48;100.00
4123;BME280;2075;51.062;6.920;2023-11-21T01:21:57;-11667.00;;;-144.48;100.00
4123;BME280;2075;51.062;6.920;2023-11-21T01:24:43;-11667.00;;;-144.48;100.00
4123;BME280;2075;51.062;6.920;2023-11-21T01:27:29;-11667.00;;;-144.48;100.00
4123;BME280;2075;51.062;6.920;2023-11-21T01:30:15;-11667.00;;;-144.48;100.00
4123;BME280;2075;51.062;6.920;2023-11-21T01:33:02;-11667.00;;;-144.48;100.00
4123;BME280;2075;51.062;6.920;2023-11-21T01:35:49;-11667.00;;;-144.48;100.00
4123;BME280;2075;51.062;6.920;2023-11-21T01:38:34;-11667.00;;;-144.48;100.00
4123;BME280;2075;51.062;6.920;2023-11-21T01:41:20;-11667.00;;;-144.48;100.00
4123;BME280;2075;51.062;6.920;2023-11-21T01:44:05;-11667.00;;;-144.48;100.00
4123;BME280;2075;51.062;6.920;2023-11-21T01:46:53;-11667.00;;;-144.48;100.00
4123;BME280;2075;51.062;6.920;2023-11-21T01:49:45;-11667.00;;;-144.48;100.00
4123;BME280;2075;51.062;6.920;2023-11-21T01:52:30;-11667.00;;;-144.48;100.00
4123;BME280;2075;51.062;6.920;2023-11-21T01:55:17;-11667.00;;;-144.48;100.00
4123;BME280;2075;51.062;6.920;2023-11-21T01:58:12;-11667.00;;;-144.48;100.00
4123;BME280;2075;51.062;6.920;2023-11-21T02:00:57;-11667.00;;;-144.48;100.00
4123;BME280;2075;51.062;6.920;2023-11-21T02:03:43;-11667.00;;;-144.48;100.00
4123;BME280;2075;51.062;6.920;2023-11-21T02:06:30;-11667.00;;;-144.48;100.00
4123;BME280;2075;51.062;6.920;2023-11-21T02:09:16;-11667.00;;;-144.48;100.00
4123;BME280;2075;51.062;6.920;2023-11-21T02:12:02;-11667.00;;;-144.48;100.00
4123;BME280;2075;51.062;6.920;2023-11-21T02:14:50;-11667.00;;;-144.48;100.00
4123;BME280;2075;51.062;6.920;2023-11-21T02:17:35;-11667.00;;;-144.48;100.00
4123;BME280;2075;51.062;6.920;2023-11-21T02:20:22;-11667.00;;;-144.48;100.00
4123;BME280;2075;51.062;6.920;2023-11-21T02:23:10;-11667.00;;;-144.48;100.00
4123;BME280;2075;51.062;6.920;2023-11-21T02:25:57;-11667.00;;;-144.48;100.00
4123;BME280;2075;51.062;6.920;2023-11-21T02:28:43;-11667.00;;;-144.48;100.00
4123;BME280;2075;51.062;6.920;2023-11-21T02:31:28;-11667.00;;;-144.48;100.00
4123;BME280;2075;51.062;6.920;2023-11-21T02:34:14;-11667.00;;;-144.48;100.00
4123;BME280;2075;51.062;6.920;2023-11-21T02:37:00;-11667.00;;;-144.48;100.00
4123;BME280;2075;51.062;6.920;2023-11-21T02:39:47;-11667.00;;;-144.48;100.00
4123;BME280;2075;51.062;6.920;2023-11-21T02:42:32;-11667.00;;;-144.48;100.00
4123;BME280;2075;51.062;6.920;2023-11-21T02:45:19;-11667.00;;;-144.48;100.00
4123;BME280;2075;51.062;6.920;2023-11-21T02:48:05;-11667.00;;;-144.48;100.00
4123;BME280;2075;51.062;6.920;2023-11-21T02:50:51;-11667.00;;;-144.48;100.00
4123;BME280;2075;51.062;6.920;2023-11-21T02:53:37;-11667.00;;;-144.48;100.00
4123;BME280;2075;51.062;6.920;2023-11-21T02:56:24;-11667.00;;;-144.48;100.00
4123;BME280;2075;51.062;6.920;2023-11-21T02:59:11;-11667.00;;;-144.48;100.00
4123;BME280;2075;51.062;6.920;2023-11-21T03:01:57;-11667.00;;;-144.48;100.00
4123;BME280;2075;51.062;6.920;2023-11-21T03:04:42;-11667.00;;;-144.48;100.00
4123;BME280;2075;51.062;6.920;2023-11-21T03:07:27;-11667.00;;;-144.48;100.00
4123;BME280;2075;51.062;6.920;2023-11-21T03:10:13;-11667.00;;;-144.48;100.00
4123;BME280;2075;51.062;6.920;2023-11-21T03:13:00;-11667.00;;;-144.48;100.00
4123;BME280;2075;51.062;6.920;2023-11-21T03:15:47;-11667.00;;;-144.48;100.00
4123;BME280;2075;51.062;6.920;2023-11-21T03:18:33;-11667.00;;;-144.48;100.00
4123;BME280;2075;51.062;6.920;2023-11-21T03:21:18;-11667.00;;;-144.48;100.00
4123;BME280;2075;51.062;6.920;2023-11-21T03:24:04;-11667.00;;;-144.48;100.00
4123;BME280;2075;51.062;6.920;2023-11-21T03:26:51;-11667.00;;;-144.48;100.00
4123;BME280;2075;51.062;6.920;2023-11-21T03:29:38;-11667.00;;;-144.48;100.00
4123;BME280;2075;51.062;6.920;2023-11-21T03:32:24;-11667.00;;;-144.48;100.00
4123;BME280;2075;51.062;6.920;2023-11-21T03:35:10;-11667.00;;;-144.48;100.00
4123;BME280;2075;51.062;6.920;2023-11-21T03:37:55;-11667.00;;;-144.48;100.00
4123;BME280;2075;51.062;6.920;2023-11-21T03:40:41;-11667.00;;;-144.48;100.00
4123;BME280;2075;51.062;6.920;2023-11-21T03:43:26;-11667.00;;;-144.48;100.00
4123;BME280;2075;51.062;6.920;2023-11-21T03:46:13;-11667.00;;;-144.48;100.00
4123;BME280;2075;51.062;6.920;2023-11-21T03:49:01;-11667.00;;;-144.48;100.00
4123;BME280;2075;51.062;6.920;2023-11-21T03:51:46;-11667.00;;;-144.48;100.00
4123;BME280;2075;51.062;6.920;2023-11-21T03:54:32;-11667.00;;;-144.48;100.00
4123;BME280;2075;51.062;6.920;2023-11-21T03:57:18;-11667.00;;;-144.48;100.00
4123;BME280;2075;51.062;6.920;2023-11-21T04:00:06;-11667.00;;;-144.48;100.00
4123;BME280;2075;51.062;6.920;2023-11-21T04:02:58;-11667.00;;;-144.48;100.00
4123;BME280;2075;51.062;6.920;2023-11-21T04:05:44;-11667.00;;;-144.48;100.00
4123;BME280;2075;51.062;6.920;2023-11-21T04:08:30;-11667.00;;;-144.48;100.00
4123;BME280;2075;51.062;6.920;2023-11-21T04:11:18;-11667.00;;;-144.48;100.00
4123;BME280;2075;51.062;6.920;2023-11-21T04:14:04;-11667.00;;;-144.48;100.00
4123;BME280;2075;51.062;6.920;2023-11-21T04:16:50;-11667.00;;;-144.48;100.00
4123;BME280;2075;51.062;6.920;2023-11-21T04:19:37;-11667.00;;;-144.48;100.00
4123;BME280;2075;51.062;6.920;2023-11-21T04:22:23;-11667.00;;;-144.48;100.00
4123;BME280;2075;51.062;6.920;2023-11-21T04:25:08;-11667.00;;;-144.48;100.00
4123;BME280;2075;51.062;6.920;2023-11-21T04:27:54;-11667.00;;;-144.48;100.00
4123;BME280;2075;51.062;6.920;2023-11-21T04:30:40;-11667.00;;;-144.48;100.00
4123;BME280;2075;51.062;6.920;2023-11-21T04:33:25;-11667.00;;;-144.48;100.00
4123;BME280;2075;51.062;6.920;2023-11-21T04:36:13;-11667.00;;;-144.48;100.00
4123;BME280;2075;51.062;6.920;2023-11-21T04:38:59;-11667.00;;;-144.48;100.00
4123;BME280;2075;51.062;6.920;2023-11-21T04:41:44;-11667.00;;;-144.48;100.00
4123;BME280;2075;51.062;6.920;2023-11-21T04:44:30;-11667.00;;;-144.48;100.00
4123;BME280;2075;51.062;6.920;2023-11-21T04:47:18;-11667.00;;;-144.48;100.00
4123;BME280;2075;51.062;6.920;2023-11-21T04:50:05;-11667.00;;;-144.48;100.00
4123;BME280;2075;51.062;6.920;2023-11-21T04:52:52;-11667.00;;;-144.48;100.00
4123;BME280;2075;51.062;6.920;2023-11-21T04:55:39;-11667.00;;;-144.48;100.00
4123;BME280;2075;51.062;6.920;2023-11-21T04:58:25;-11667.00;;;-144.48;100.00
4123;BME280;2075;51.062;6.920;2023-11-21T05:01:10;-11667.00;;;-144.48;100.00
4123;BME280;2075;51.062;6.920;2023-11-21T05:03:56;-11667.00;;;-144.48;100.00
4123;BME280;2075;51.062;6.920;2023-11-21T05:06:42;-11667.00;;;-144.48;100.00
4123;BME280;2075;51.062;6.920;2023-11-21T05:09:30;-11667.00;;;-144.48;100.00
4123;BME280;2075;51.062;6.920;2023-11-21T05:12:16;-11667.00;;;-144.48;100.00
4123;BME280;2075;51.062;6.920;2023-11-21T05:15:04;-11667.00;;;-144.48;100.00
4123;BME280;2075;51.062;6.920;2023-11-21T05:17:55;-11667.00;;;-144.48;100.00
4123;BME280;2075;51.062;6.920;2023-11-21T05:20:46;-11667.00;;;-144.48;100.00
4123;BME280;2075;51.062;6.920;2023-11-21T05:23:39;-11667.00;;;-144.48;100.00
4123;BME280;2075;51.062;6.920;2023-11-21T05:26:26;-11667.00;;;-144.48;100.00
4123;BME280;2075;51.062;6.920;2023-11-21T05:29:12;-11667.00;;;-144.48;100.00
4123;BME280;2075;51.062;6.920;2023-11-21T05:31:58;-11667.00;;;-144.48;100.00
4123;BME280;2075;51.062;6.920;2023-11-21T05:34:44;-11667.00;;;-144.48;100.00
4123;BME280;2075;51.062;6.920;2023-11-21T05:37:29;-11667.00;;;-144.48;100.00
4123;BME280;2075;51.062;6.920;2023-11-21T05:40:16;-11667.00;;;-144.48;100.00
4123;BME280;2075;51.062;6.920;2023-11-21T05:43:03;-11667.00;;;-144.48;100.00
4123;BME280;2075;51.062;6.920;2023-11-21T05:45:50;-11667.00;;;-144.48;100.00
4123;BME280;2075;51.062;6.920;2023-11-21T05:48:37;-11667.00;;;-144.48;100.00
4123;BME280;2075;51.062;6.920;2023-11-21T05:51:23;-11667.00;;;-144.48;100.00
4123;BME280;2075;51.062;6.920;2023-11-21T05:54:09;-11667.00;;;-144.48;100.00
4123;BME280;2075;51.062;6.920;2023-11-21T05:56:54;-11667.00;;;-144.48;100.00
4123;BME280;2075;51.062;6.920;2023-11-21T05:59:42;-11667.00;;;-144.48;100.00
4123;BME280;2075;51.062;6.920;2023-11-21T06:02:27;-11667.00;;;-144.48;100.00
4123;BME280;2075;51.062;6.920;2023-11-21T06:05:13;-11667.00;;;-144.48;100.00
4123;BME280;2075;51.062;6.920;2023-11-21T06:08:00;-11667.00;;;-144.48;100.00
4123;BME280;2075;51.062;6.920;2023-11-21T06:10:47;-11667.00;;;-144.48;100.00
4123;BME280;2075;51.062;6.920;2023-11-21T06:13:34;-11667.00;;;-144.48;100.00
4123;BME280;2075;51.062;6.920;2023-11-21T06:16:22;-11667.00;;;-144.48;100.00
4123;BME280;2075;51.062;6.920;2023-11-21T06:19:08;-11667.00;;;-144.48;100.00
4123;BME280;2075;51.062;6.920;2023-11-21T06:21:57;-11667.00;;;-144.48;100.00
4123;BME280;2075;51.062;6.920;2023-11-21T06:24:44;-11667.00;;;-144.48;100.00
4123;BME280;2075;51.062;6.920;2023-11-21T06:27:31;-11667.00;;;-144.48;100.00
4123;BME280;2075;51.062;6.920;2023-11-21T06:30:19;-11667.00;;;-144.48;100.00
4123;BME280;2075;51.062;6.920;2023-11-21T06:33:25;-11667.00;;;-144.48;100.00
4123;BME280;2075;51.062;6.920;2023-11-21T06:36:12;-11667.00;;;-144.48;100.00
4123;BME280;2075;51.062;6.920;2023-11-21T06:39:01;-11667.00;;;-144.48;100.00
4123;BME280;2075;51.062;6.920;2023-11-21T06:41:49;-11667.00;;;-144.48;100.00
4123;BME280;2075;51.062;6.920;2023-11-21T06:44:40;-11667.00;;;-144.48;100.00
4123;BME280;2075;51.062;6.920;2023-11-21T06:47:42;-11667.00;;;-144.48;100.00
4123;BME280;2075;51.062;6.920;2023-11-21T06:50:30;-11667.00;;;-144.48;100.00
4123;BME280;2075;51.062;6.920;2023-11-21T06:53:16;-11667.00;;;-144.48;100.00
4123;BME280;2075;51.062;6.920;2023-11-21T06:56:04;-11667.00;;;-144.48;100.00
4123;BME280;2075;51.062;6.920;2023-11-21T06:58:59;-11667.00;;;-144.48;100.00
4123;BME280;2075;51.062;6.920;2023-11-21T07:01:47;-11667.00;;;-144.48;100.00
4123;BME280;2075;51.062;6.920;2023-11-21T07:04:33;-11667.00;;;-144.48;100.00
4123;BME280;2075;51.062;6.920;2023-11-21T07:07:23;-11667.00;;;-144.48;100.00
4123;BME280;2075;51.062;6.920;2023-11-21T07:10:13;-11667.00;;;-144.48;100.00
4123;BME280;2075;51.062;6.920;2023-11-21T07:13:02;-11667.00;;;-144.48;100.00
4123;BME280;2075;51.062;6.920;2023-11-21T07:15:50;-11667.00;;;-144.48;100.00
4123;BME280;2075;51.062;6.920;2023-11-21T07:18:39;-11667.00;;;-144.48;100.00
4123;BME280;2075;51.062;6.920;2023-11-21T07:21:25;-11667.00;;;-144.48;100.00
4123;BME280;2075;51.062;6.920;2023-11-21T07:24:17;-11667.00;;;-144.48;100.00
4123;BME280;2075;51.062;6.920;2023-11-21T07:27:04;-11667.00;;;-144.48;100.00
4123;BME280;2075;51.062;6.920;2023-11-21T07:29:49;-11667.00;;;-144.48;100.00
4123;BME280;2075;51.062;6.920;2023-11-21T07:32:37;-11667.00;;;-144.48;100.00
4123;BME280;2075;51.062;6.920;2023-11-21T07:35:26;-11667.00;;;-144.48;100.00
4123;BME280;2075;51.062;6.920;2023-11-21T07:38:12;-11667.00;;;-144.48;100.00
4123;BME280;2075;51.062;6.920;2023-11-21T07:41:00;-11667.00;;;-144.48;100.00
4123;BME280;2075;51.062;6.920;2023-11-21T07:43:47;-11667.00;;;-144.48;100.00
4123;BME280;2075;51.062;6.920;2023-11-21T07:46:38;-11667.00;;;-144.48;100.00
4123;BME280;2075;51.062;6.920;2023-11-21T07:49:32;-11667.00;;;-144.48;100.00
4123;BME280;2075;51.062;6.920;2023-11-21T07:52:18;-11667.00;;;-144.48;100.00
4123;BME280;2075;51.062;6.920;2023-11-21T07:55:10;-11667.00;;;-144.48;100.00
4123;BME280;2075;51.062;6.920;2023-11-21T07:57:58;-11667.00;;;-144.48;100.00
4123;BME280;2075;51.062;6.920;2023-11-21T08:00:44;-11667.00;;;-144.48;100.00
4123;BME280;2075;51.062;6.920;2023-11-21T08:03:30;-11667.00;;;-144.48;100.00
4123;BME280;2075;51.062;6.920;2023-11-21T08:06:17;-11667.00;;;-144.48;100.00
4123;BME280;2075;51.062;6.920;2023-11-21T08:09:03;-11667.00;;;-144.48;100.00
4123;BME280;2075;51.062;6.920;2023-11-21T08:11:53;-11667.00;;;-144.48;100.00
4123;BME280;2075;51.062;6.920;2023-11-21T08:14:41;-11667.00;;;-144.48;100.00
4123;BME280;2075;51.062;6.920;2023-11-21T08:17:29;-11665.53;;;-144.48;100.00
4123;BME280;2075;51.062;6.920;2023-11-21T08:20:18;-11161.53;;;-144.48;100.00
4123;BME280;2075;51.062;6.920;2023-11-21T08:23:04;-10909.50;;;-144.48;100.00
4123;BME280;2075;51.062;6.920;2023-11-21T08:25:55;-10657.44;;;-144.48;100.00
4123;BME280;2075;51.062;6.920;2023-11-21T08:28:47;-9649.03;;;-144.48;100.00
4123;BME280;2075;51.062;6.920;2023-11-21T08:31:40;-9901.19;;;-144.48;100.00
4123;BME280;2075;51.062;6.920;2023-11-21T08:34:36;-8640.34;;;-144.48;100.00
4123;BME280;2075;51.062;6.920;2023-11-21T08:37:36;-10153.28;;;-144.48;100.00
4123;BME280;2075;51.062;6.920;2023-11-21T08:40:19;-10153.28;;;-144.48;100.00
4123;BME280;2075;51.062;6.920;2023-11-21T08:43:07;-9396.91;;;-144.48;100.00
4123;BME280;2075;51.062;6.920;2023-11-21T08:46:03;-8388.09;;;-144.48;100.00
4123;BME280;2075;51.062;6.920;2023-11-21T08:48:51;-8640.34;;;-144.48;100.00
4123;BME280;2075;51.062;6.920;2023-11-21T08:51:44;-7631.31;;;-144.48;100.00
4123;BME280;2075;51.062;6.920;2023-11-21T08:54:36;-7379.00;;;-144.48;100.00
4123;BME280;2075;51.062;6.920;2023-11-21T08:57:24;-5864.78;;;-144.48;100.00
4123;BME280;2075;51.062;6.920;2023-11-21T09:00:14;-2076.13;;;-144.48;100.00
4123;BME280;2075;51.062;6.920;2023-11-21T09:03:02;-1570.63;;;-144.48;100.00
4123;BME280;2075;51.062;6.920;2023-11-21T09:05:57;199.19;;;-144.48;100.00
4123;BME280;2075;51.062;6.920;2023-11-21T09:09:00;1463.94;;;-144.48;100.00
4123;BME280;2075;51.062;6.920;2023-11-21T09:11:51;2476.06;;;-144.48;100.00
4123;BME280;2075;51.062;6.920;2023-11-21T09:14:37;5007.78;;;-144.48;100.00
4123;BME280;2075;51.062;6.920;2023-11-21T09:17:25;1463.94;;;-144.48;100.00
4123;BME280;2075;51.062;6.920;2023-11-21T09:20:16;-2328.84;;;-144.48;100.00
4123;BME280;2075;51.062;6.920;2023-11-21T09:23:17;-2076.13;;;-144.48;100.00
4123;BME280;2075;51.062;6.920;2023-11-21T09:26:05;-1823.38;;;-144.48;100.00
4123;BME280;2075;51.062;6.920;2023-11-21T09:29:02;452.09;;;-144.48;100.00
4123;BME280;2075;51.062;6.920;2023-11-21T09:31:57;3235.38;;;-144.48;100.00
4123;BME280;2075;51.062;6.920;2023-11-21T09:34:48;6527.75;;;-144.48;100.00
4123;BME280;2075;51.062;6.920;2023-11-21T09:37:43;15154.19;;;-144.48;100.00
4123;BME280;2075;51.062;6.920;2023-11-21T09:40:39;21766.06;;;-144.48;100.00
4123;BME280;2075;51.062;6.920;2023-11-21T09:43:30;25331.78;;;-144.48;100.00
4123;BME280;2075;51.062;6.920;2023-11-21T09:46:25;32730.03;;;-144.48;100.00
4123;BME280;2075;51.062;6.920;2023-11-21T09:49:17;25331.78;;;-144.48;100.00
4123;BME280;2075;51.062;6.920;2023-11-21T09:52:06;16424.66;;;-144.48;100.00
4123;BME280;2075;51.062;6.920;2023-11-21T09:55:08;22529.81;;;-144.48;100.00
4123;BME280;2075;51.062;6.920;2023-11-21T09:58:01;19475.84;;;-144.48;100.00
4123;BME280;2075;51.062;6.920;2023-11-21T10:00:55;17949.91;;;-144.48;100.00
4123;BME280;2075;51.062;6.920;2023-11-21T10:03:44;15408.25;;;-144.48;100.00
4123;BME280;2075;51.062;6.920;2023-11-21T10:06:33;23039.09;;;-144.48;100.00
4123;BME280;2075;51.062;6.920;2023-11-21T10:09:30;24822.16;;;-144.48;100.00
4123;BME280;2075;51.062;6.920;2023-11-21T10:12:17;29921.88;;;-144.48;100.00
4123;BME280;2075;51.062;6.920;2023-11-21T10:15:08;17441.41;;;-144.48;100.00
4123;BME280;2075;51.062;6.920;2023-11-21T10:18:02;24567.38;;;-144.48;100.00
4123;BME280;2075;51.062;6.920;2023-11-21T10:20:51;26351.25;;;-144.48;100.00
4123;BME280;2075;51.062;6.920;2023-11-21T10:23:39;31963.94;;;-144.48;100.00
4123;BME280;2075;51.062;6.920;2023-11-21T10:26:28;34262.75;;;-144.48;100.00
4123;BME280;2075;51.062;6.920;2023-11-21T10:29:20;39376.91;;;-144.48;100.00
4123;BME280;2075;51.062;6.920;2023-11-21T10:32:15;42449.16;;;-144.48;100.00
4123;BME280;2075;51.062;6.920;2023-11-21T10:35:03;33240.88;;;-144.48;100.00
4123;BME280;2075;51.062;6.920;2023-11-21T10:38:00;31708.63;;;-144.48;100.00
4123;BME280;2075;51.062;6.920;2023-11-21T10:40:48;31453.31;;;-144.48;100.00
4123;BME280;2075;51.062;6.920;2023-11-21T10:43:35;26606.16;;;-144.48;100.00
4123;BME280;2075;51.062;6.920;2023-11-21T10:46:27;33751.78;;;-144.48;100.00
4123;BME280;2075;51.062;6.920;2023-11-21T10:49:16;40144.72;;;-144.48;100.00
4123;BME280;2075;51.062;6.920;2023-11-21T10:52:04;48088.88;;;-144.48;100.00
4123;BME280;2075;51.062;6.920;2023-11-21T10:54:50;45267.84;;;-144.48;100.00
4123;BME280;2075;51.062;6.920;2023-11-21T10:57:37;41168.72;;;-144.48;100.00
4123;BME280;2075;51.062;6.920;2023-11-21T11:00:27;39888.75;;;-144.48;100.00
4123;BME280;2075;51.062;6.920;2023-11-21T11:03:14;39121.03;;;-144.48;100.00
4123;BME280;2075;51.062;6.920;2023-11-21T11:06:24;37330.31;;;-144.48;100.00
4123;BME280;2075;51.062;6.920;2023-11-21T11:09:14;31453.31;;;-144.48;100.00
4123;BME280;2075;51.062;6.920;2023-11-21T11:12:06;28391.13;;;-144.48;100.00
4123;BME280;2075;51.062;6.920;2023-11-21T11:15:02;31963.94;;;-144.48;100.00
4123;BME280;2075;51.062;6.920;2023-11-21T11:17:49;37074.59;;;-144.48;100.00
4123;BME280;2075;51.062;6.920;2023-11-21T11:20:44;39632.81;;;-144.48;100.00
4123;BME280;2075;51.062;6.920;2023-11-21T11:23:49;54509.13;;;-144.48;100.00
4123;BME280;2075;51.062;6.920;2023-11-21T11:26:46;55794.63;;;-144.48;100.00
4123;BME280;2075;51.062;6.920;2023-11-21T11:29:41;73239.13;;;-144.48;100.00
4123;BME280;2075;51.062;6.920;2023-11-21T11:32:38;90913.00;;;-144.48;100.00
4123;BME280;2075;51.062;6.920;2023-11-21T11:35:34;90596.38;;;-144.48;100.00
4123;BME280;2075;51.062;6.920;2023-11-21T11:38:27;92135.09;;;-144.48;100.00
4123;BME280;2075;51.062;6.920;2023-11-21T11:41:24;92342.19;;;-144.48;100.00
4123;BME280;2075;51.062;6.920;2023-11-21T11:44:53;90606.53;;;-144.48;100.00
4123;BME280;2075;51.062;6.920;2023-11-21T11:47:42;85522.28;;;-144.48;100.00
4123;BME280;2075;51.062;6.920;2023-11-21T11:50:29;67644.19;;;-144.48;100.00
4123;BME280;2075;51.062;6.920;2023-11-21T11:53:17;59139.22;;;-144.48;100.00
4123;BME280;2075;51.062;6.920;2023-11-21T11:56:27;45780.56;;;-144.48;100.00
4123;BME280;2075;51.062;6.920;2023-11-21T11:59:15;40912.69;;;-144.48;100.00
4123;BME280;2075;51.062;6.920;2023-11-21T12:02:06;32985.44;;;-144.48;100.00
4123;BME280;2075;51.062;6.920;2023-11-21T12:04:57;32730.03;;;-144.48;100.00
4123;BME280;2075;51.062;6.920;2023-11-21T12:07:45;31963.94;;;-144.48;100.00
4123;BME280;2075;51.062;6.920;2023-11-21T12:10:36;41680.84;;;-144.48;100.00
4123;BME280;2075;51.062;6.920;2023-11-21T12:13:23;46293.41;;;-144.48;100.00
4123;BME280;2075;51.062;6.920;2023-11-21T12:16:10;53995.03;;;-144.48;100.00
4123;BME280;2075;51.062;6.920;2023-11-21T12:18:58;52453.31;;;-144.48;100.00
4123;BME280;2075;51.062;6.920;2023-11-21T12:21:45;36051.84;;;-144.48;100.00
4123;BME280;2075;51.062;6.920;2023-11-21T12:24:34;36818.88;;;-144.48;100.00
4123;BME280;2075;51.062;6.920;2023-11-21T12:27:21;24312.59;;;-144.48;100.00
4123;BME280;2075;51.062;6.920;2023-11-21T12:30:08;22275.22;;;-144.48;100.00
4123;BME280;2075;51.062;6.920;2023-11-21T12:33:05;27626.03;;;-144.48;100.00
4123;BME280;2075;51.062;6.920;2023-11-21T12:35:54;26351.25;;;-144.48;100.00
4123;BME280;2075;51.062;6.920;2023-11-21T12:38:42;22784.44;;;-144.48;100.00
4123;BME280;2075;51.062;6.920;2023-11-21T12:41:28;19475.84;;;-144.48;100.00
4123;BME280;2075;51.062;6.920;2023-11-21T12:44:16;21002.47;;;-144.48;100.00
4123;BME280;2075;51.062;6.920;2023-11-21T12:47:03;15916.41;;;-144.48;100.00
4123;BME280;2075;51.062;6.920;2023-11-21T12:49:50;16678.81;;;-144.48;100.00
4123;BME280;2075;51.062;6.920;2023-11-21T12:52:37;23039.09;;;-144.48;100.00
4123;BME280;2075;51.062;6.920;2023-11-21T12:55:26;30177.06;;;-144.48;100.00
4123;BME280;2075;51.062;6.920;2023-11-21T12:58:15;47832.31;;;-144.48;100.00
4123;BME280;2075;51.062;6.920;2023-11-21T13:01:05;67902.25;;;-144.48;100.00
4123;BME280;2075;51.062;6.920;2023-11-21T13:03:57;65322.56;;;-144.48;100.00
4123;BME280;2075;51.062;6.920;2023-11-21T13:06:44;52196.44;;;-144.48;100.00
4123;BME280;2075;51.062;6.920;2023-11-21T13:09:34;59396.66;;;-144.48;100.00
4123;BME280;2075;51.062;6.920;2023-11-21T13:12:43;55280.38;;;-144.48;100.00
4123;BME280;2075;51.062;6.920;2023-11-21T13:15:32;57595.16;;;-144.48;100.00
4123;BME280;2075;51.062;6.920;2023-11-21T13:18:19;75507.56;;;-144.48;100.00
4123;BME280;2075;51.062;6.920;2023-11-21T13:21:08;74709.50;;;-144.48;100.00
4123;BME280;2075;51.062;6.920;2023-11-21T13:23:58;80908.94;;;-144.48;100.00
4123;BME280;2075;51.062;6.920;2023-11-21T13:26:46;82516.22;;;-144.48;100.00
4123;BME280;2075;51.062;6.920;2023-11-21T13:29:36;87681.19;;;-144.48;100.00
4123;BME280;2075;51.062;6.920;2023-11-21T13:32:34;68418.44;;;-144.48;100.00
4123;BME280;2075;51.062;6.920;2023-11-21T13:35:21;51939.56;;;-144.48;100.00
4123;BME280;2075;51.062;6.920;2023-11-21T13:38:16;46806.28;;;-144.48;100.00
4123;BME280;2075;51.062;6.920;2023-11-21T13:41:02;54252.06;;;-144.48;100.00
4123;BME280;2075;51.062;6.920;2023-11-21T13:43:52;43730.06;;;-144.48;100.00
4123;BME280;2075;51.062;6.920;2023-11-21T13:46:47;35284.97;;;-144.48;100.00
4123;BME280;2075;51.062;6.920;2023-11-21T13:49:34;26861.09;;;-144.48;100.00
4123;BME280;2075;51.062;6.920;2023-11-21T13:52:25;31453.31;;;-144.48;100.00
4123;BME280;2075;51.062;6.920;2023-11-21T13:55:12;39632.81;;;-144.48;100.00
4123;BME280;2075;51.062;6.920;2023-11-21T13:58:00;40912.69;;;-144.48;100.00
4123;BME280;2075;51.062;6.920;2023-11-21T14:00:49;46293.41;;;-144.48;100.00
4123;BME280;2075;51.062;6.920;2023-11-21T14:03:40;42449.16;;;-144.48;100.00
4123;BME280;2075;51.062;6.920;2023-11-21T14:06:36;40144.72;;;-144.48;100.00
4123;BME280;2075;51.062;6.920;2023-11-21T14:09:32;42449.16;;;-144.48;100.00
4123;BME280;2075;51.062;6.920;2023-11-21T14:12:20;30687.50;;;-144.48;100.00
4123;BME280;2075;51.062;6.920;2023-11-21T14:15:06;24822.16;;;-144.48;100.00
4123;BME280;2075;51.062;6.920;2023-11-21T14:17:56;25331.78;;;-144.48;100.00
4123;BME280;2075;51.062;6.920;2023-11-21T14:20:55;22275.22;;;-144.48;100.00
4123;BME280;2075;51.062;6.920;2023-11-21T14:23:41;21002.47;;;-144.48;100.00
4123;BME280;2075;51.062;6.920;2023-11-21T14:26:30;26351.25;;;-144.48;100.00
4123;BME280;2075;51.062;6.920;2023-11-21T14:29:18;23293.75;;;-144.48;100.00
4123;BME280;2075;51.062;6.920;2023-11-21T14:32:05;22275.22;;;-144.48;100.00
4123;BME280;2075;51.062;6.920;2023-11-21T14:34:54;21511.53;;;-144.48;100.00
4123;BME280;2075;51.062;6.920;2023-11-21T14:37:40;26096.34;;;-144.48;100.00